Time;durP1;ratioP1;P1;durP2;ratioP2;P2;SDS_P1;SDS_P2;PMS_P1;PMS_P2;Temp;Humidity;BMP_temperature;BMP_pressure;BME280_temperature;BME280_humidity;BME280_pressure;Samples;Min_cycle;Max_cycle;Signal;HPM_P1;HPM_P2
2023/09/03 00:02:20;;;;;;;8.50;5.50;;;;;;;15.73;94.67;101737.97;7395837;19;20447;-61
2023/09/03 00:04:47;;;;;;;7.47;5.80;;;;;;;15.73;94.72;101735.31;7393001;19;20377;-61
2023/09/03 00:07:14;;;;;;;7.55;5.43;;;;;;;15.73;94.57;101727.28;7395804;19;20386;-60
2023/09/03 00:09:41;;;;;;;7.97;5.93;;;;;;;15.71;94.55;101735.44;7395169;19;20355;-62
2023/09/03 00:12:08;;;;;;;7.68;5.90;;;;;;;15.69;94.76;101726.78;7384418;19;20432;-61
2023/09/03 00:14:34;;;;;;;7.07;5.82;;;;;;;15.66;94.62;101727.13;7391480;19;20375;-61
2023/09/03 00:17:01;;;;;;;10.18;6.82;;;;;;;15.64;95.13;101721.13;7391948;19;20791;-62
2023/09/03 00:19:28;;;;;;;8.20;6.25;;;;;;;15.60;95.53;101727.88;7388340;19;20364;-62
2023/09/03 00:21:55;;;;;;;8.20;6.47;;;;;;;15.55;95.43;101719.56;7389357;19;20352;-61
2023/09/03 00:24:21;;;;;;;8.38;6.50;;;;;;;15.53;95.70;101734.94;7388042;19;20389;-61
2023/09/03 00:26:49;;;;;;;7.43;6.17;;;;;;;15.48;95.81;101739.00;7395144;19;20698;-61
2023/09/03 00:29:16;;;;;;;8.60;5.97;;;;;;;15.46;95.96;101735.69;7394196;19;20364;-61
2023/09/03 00:31:42;;;;;;;7.53;6.20;;;;;;;15.44;96.55;101734.19;7394299;19;20376;-61
2023/09/03 00:34:10;;;;;;;7.43;6.57;;;;;;;15.41;96.81;101729.22;7396281;19;20433;-61
2023/09/03 00:36:37;;;;;;;7.37;6.47;;;;;;;15.39;96.96;101721.38;7393828;19;20449;-61
2023/09/03 00:39:04;;;;;;;8.20;6.07;;;;;;;15.38;96.88;101730.41;7395167;19;20364;-61
2023/09/03 00:41:31;;;;;;;8.57;6.30;;;;;;;15.37;96.79;101731.44;7393454;19;20376;-61
2023/09/03 00:43:57;;;;;;;10.05;6.75;;;;;;;15.35;97.13;101749.50;7396308;19;20369;-61
2023/09/03 00:46:24;;;;;;;8.55;6.30;;;;;;;15.33;97.43;101754.19;7398843;19;20357;-62
2023/09/03 00:48:51;;;;;;;9.82;6.53;;;;;;;15.29;97.79;101766.25;7392561;19;20851;-62
2023/09/03 00:51:18;;;;;;;7.35;6.50;;;;;;;15.28;97.64;101761.94;7394377;19;20754;-61
2023/09/03 00:53:48;;;;;;;8.68;6.70;;;;;;;15.25;98.02;101759.59;7396449;19;20371;-61
2023/09/03 00:56:15;;;;;;;9.25;6.85;;;;;;;15.20;98.06;101759.31;7390602;19;20384;-62
2023/09/03 00:58:45;;;;;;;7.22;6.50;;;;;;;15.17;97.83;101760.47;7396383;19;20521;-61
2023/09/03 01:01:12;;;;;;;8.02;6.47;;;;;;;15.15;97.99;101773.22;7393006;19;20440;-59
2023/09/03 01:03:39;;;;;;;8.32;6.55;;;;;;;15.15;98.14;101791.06;7393364;19;20386;-61
2023/09/03 01:06:06;;;;;;;7.93;6.18;;;;;;;15.11;98.87;101782.59;7396270;19;20369;-61
2023/09/03 01:08:35;;;;;;;9.15;7.10;;;;;;;15.08;98.96;101790.97;7395095;19;20368;-62
2023/09/03 01:11:34;;;;;;;9.10;6.57;;;;;;;15.04;98.91;101778.97;7395060;19;20376;-62
2023/09/03 01:14:06;;;;;;;8.43;7.13;;;;;;;15.00;99.21;101791.88;7394455;19;20707;-62
2023/09/03 01:16:46;;;;;;;8.15;6.60;;;;;;;14.98;99.12;101771.66;7392249;19;20407;-61
2023/09/03 01:19:52;;;;;;;9.20;6.82;;;;;;;14.96;99.20;101761.16;7392202;19;20377;-62
2023/09/03 01:22:46;;;;;;;8.60;6.60;;;;;;;14.93;99.01;101758.00;7390022;19;20500;-61
2023/09/03 01:25:34;;;;;;;8.02;7.05;;;;;;;14.87;98.96;101765.72;7392077;19;20385;-61
2023/09/03 01:28:25;;;;;;;8.27;7.00;;;;;;;14.84;99.21;101770.59;7393794;19;20846;-62
2023/09/03 01:31:00;;;;;;;9.20;7.80;;;;;;;14.80;99.56;101774.63;7394004;19;20739;-62
2023/09/03 01:33:29;;;;;;;10.07;7.80;;;;;;;14.76;99.83;101773.31;7392908;19;20376;-62
2023/09/03 01:35:57;;;;;;;9.63;7.20;;;;;;;14.73;100.00;101773.66;7389602;19;20383;-62
2023/09/03 01:38:25;;;;;;;8.82;7.32;;;;;;;14.68;100.00;101788.38;7395651;19;20447;-62
2023/09/03 01:40:55;;;;;;;10.70;8.15;;;;;;;14.64;100.00;101797.75;7393581;19;20364;-62
2023/09/03 01:43:22;;;;;;;10.23;7.25;;;;;;;14.60;100.00;101795.56;7392780;19;20383;-62
2023/09/03 01:46:05;;;;;;;11.60;8.35;;;;;;;14.58;100.00;101802.97;7394574;19;20385;-62
2023/09/03 01:48:42;;;;;;;10.57;8.00;;;;;;;14.56;100.00;101799.63;7393085;19;20665;-62
2023/09/03 01:51:50;;;;;;;10.15;8.02;;;;;;;14.54;100.00;101794.44;7391532;19;20673;-62
2023/09/03 01:54:22;;;;;;;11.25;8.20;;;;;;;14.53;100.00;101787.41;7392043;19;20412;-62
2023/09/03 01:57:01;;;;;;;9.77;8.07;;;;;;;14.53;100.00;101790.06;7392596;19;20364;-62
2023/09/03 01:59:41;;;;;;;11.50;7.75;;;;;;;14.54;100.00;101790.94;7392930;19;20385;-62
2023/09/03 02:02:09;;;;;;;9.90;8.45;;;;;;;14.53;100.00;101792.75;7392341;19;20344;-62
2023/09/03 02:04:36;;;;;;;9.90;8.15;;;;;;;14.50;100.00;101790.44;7385613;19;20888;-62
2023/09/03 02:07:04;;;;;;;11.05;8.48;;;;;;;14.48;100.00;101792.44;7390929;19;20359;-62
2023/09/03 02:09:31;;;;;;;13.13;8.73;;;;;;;14.48;100.00;101787.94;7394691;19;20336;-62
2023/09/03 02:11:58;;;;;;;10.83;8.27;;;;;;;14.46;100.00;101781.94;7387990;19;20707;-62
2023/09/03 02:14:26;;;;;;;10.95;8.63;;;;;;;14.45;100.00;101777.63;7391911;19;20360;-61
2023/09/03 02:16:54;;;;;;;10.50;8.73;;;;;;;14.44;100.00;101769.78;7395598;19;20543;-62
2023/09/03 02:19:21;;;;;;;9.85;8.48;;;;;;;14.44;100.00;101767.09;7389369;19;20476;-62
2023/09/03 02:21:48;;;;;;;11.20;8.65;;;;;;;14.42;100.00;101755.75;7390906;19;20406;-62
2023/09/03 02:24:15;;;;;;;10.85;8.55;;;;;;;14.45;100.00;101760.75;7392822;19;20735;-62
2023/09/03 02:26:43;;;;;;;10.63;8.95;;;;;;;14.42;100.00;101750.41;7391892;19;20477;-62
2023/09/03 02:29:10;;;;;;;10.25;8.68;;;;;;;14.41;100.00;101760.28;7393965;19;20345;-61
2023/09/03 02:31:38;;;;;;;11.25;9.50;;;;;;;14.41;100.00;101760.28;7388797;19;20376;-61
2023/09/03 02:34:06;;;;;;;10.67;8.80;;;;;;;14.43;100.00;101762.78;7391225;19;20747;-62
2023/09/03 02:36:34;;;;;;;11.93;9.30;;;;;;;14.42;100.00;101772.59;7391946;19;20432;-63
2023/09/03 02:39:03;;;;;;;12.30;8.90;;;;;;;14.42;100.00;101767.25;7392445;19;20372;-62
2023/09/03 02:41:30;;;;;;;13.10;9.50;;;;;;;14.44;100.00;101759.91;7392344;19;20376;-62
2023/09/03 02:43:58;;;;;;;12.63;9.00;;;;;;;14.43;100.00;101758.28;7392099;19;20364;-62
2023/09/03 02:46:25;;;;;;;11.77;9.40;;;;;;;14.42;100.00;101761.09;7391747;19;20394;-62
2023/09/03 02:48:52;;;;;;;12.45;8.93;;;;;;;14.42;100.00;101763.78;7388215;19;20439;-62
2023/09/03 02:51:20;;;;;;;10.13;9.00;;;;;;;14.40;100.00;101761.28;7388270;19;20332;-62
2023/09/03 02:53:47;;;;;;;11.18;9.05;;;;;;;14.40;100.00;101757.78;7391498;19;20340;-62
2023/09/03 02:56:14;;;;;;;11.35;8.75;;;;;;;14.38;100.00;101749.09;7392130;19;20928;-63
2023/09/03 02:58:42;;;;;;;11.70;9.18;;;;;;;14.36;100.00;101749.28;7391367;19;20371;-63
2023/09/03 03:01:11;;;;;;;11.50;8.85;;;;;;;14.31;100.00;101740.16;7390067;19;20356;-62
2023/09/03 03:03:38;;;;;;;10.65;9.32;;;;;;;14.26;100.00;101743.34;7389943;19;20376;-62
2023/09/03 03:06:05;;;;;;;14.73;9.23;;;;;;;14.22;100.00;101745.50;7385481;19;20381;-63
2023/09/03 03:08:31;;;;;;;11.52;9.80;;;;;;;14.17;100.00;101745.19;7389524;19;20364;-62
2023/09/03 03:11:08;;;;;;;12.43;10.18;;;;;;;14.15;100.00;101738.34;7389487;19;20916;-63
2023/09/03 03:13:39;;;;;;;13.30;10.05;;;;;;;14.11;100.00;101759.25;7390373;19;20380;-63
2023/09/03 03:16:13;;;;;;;11.90;9.87;;;;;;;14.09;100.00;101763.91;7390222;19;20406;-62
2023/09/03 03:18:42;;;;;;;14.00;10.68;;;;;;;14.05;100.00;101783.94;7390147;19;20701;-62
2023/09/03 03:21:14;;;;;;;12.82;10.80;;;;;;;14.00;100.00;101788.94;7388401;19;20360;-62
2023/09/03 03:23:46;;;;;;;13.00;10.60;;;;;;;13.98;100.00;101791.78;7385878;19;20373;-62
2023/09/03 03:26:14;;;;;;;14.13;10.25;;;;;;;13.98;100.00;101802.47;7382230;19;20375;-63
2023/09/03 03:28:41;;;;;;;13.07;10.73;;;;;;;14.00;100.00;101783.59;7387267;19;20361;-63
2023/09/03 03:31:09;;;;;;;11.45;10.25;;;;;;;14.00;100.00;101791.59;7387223;19;20394;-62
2023/09/03 03:33:38;;;;;;;11.88;9.80;;;;;;;14.00;100.00;101799.59;7385613;19;20368;-62
2023/09/03 03:36:06;;;;;;;12.07;9.93;;;;;;;14.00;100.00;101807.59;7389067;19;20377;-61
2023/09/03 03:38:33;;;;;;;11.50;10.00;;;;;;;14.00;100.00;101810.28;7387371;19;20382;-62
2023/09/03 03:41:09;;;;;;;11.90;10.00;;;;;;;14.00;100.00;101805.75;7389335;19;20364;-62
2023/09/03 03:43:39;;;;;;;13.43;10.38;;;;;;;13.99;100.00;101808.63;7382434;19;20369;-62
2023/09/03 03:46:06;;;;;;;12.73;9.50;;;;;;;14.01;100.00;101807.44;7387196;19;20386;-62
2023/09/03 03:48:34;;;;;;;11.52;10.25;;;;;;;14.03;100.00;101809.94;7385316;19;20364;-62
2023/09/03 03:51:01;;;;;;;11.65;9.90;;;;;;;14.03;100.00;101810.78;7390058;19;20365;-62
2023/09/03 03:53:29;;;;;;;11.40;9.93;;;;;;;14.03;100.00;101809.94;7388419;19;20361;-63
2023/09/03 03:55:59;;;;;;;11.45;9.07;;;;;;;14.03;100.00;101817.97;7387890;19;20375;-63
2023/09/03 03:58:28;;;;;;;12.40;9.07;;;;;;;14.01;100.00;101823.44;7389780;19;20365;-62
2023/09/03 04:00:55;;;;;;;12.95;10.40;;;;;;;14.00;100.00;101820.94;7387712;19;20343;-62
2023/09/03 04:03:23;;;;;;;14.20;10.30;;;;;;;13.96;100.00;101815.13;7388530;19;20349;-62
2023/09/03 04:06:00;;;;;;;12.20;9.95;;;;;;;13.94;100.00;101819.81;7389329;19;20373;-63
2023/09/03 04:08:31;;;;;;;11.40;9.80;;;;;;;13.92;100.00;101829.81;7399008;19;20372;-63
2023/09/03 04:11:04;;;;;;;13.70;10.48;;;;;;;13.90;100.00;101821.16;7394240;19;20365;-62
2023/09/03 04:13:32;;;;;;;13.23;10.13;;;;;;;13.89;100.00;101834.66;7397282;19;20441;-61
2023/09/03 04:15:58;;;;;;;12.07;9.73;;;;;;;13.88;100.00;101836.50;7397649;19;20936;-62
2023/09/03 04:18:27;;;;;;;13.80;9.73;;;;;;;13.87;100.00;101840.16;7397138;19;20720;-62
2023/09/03 04:20:55;;;;;;;13.15;10.15;;;;;;;13.87;100.00;101837.47;7395340;19;20389;-63
2023/09/03 04:23:24;;;;;;;11.32;10.13;;;;;;;13.86;100.00;101835.81;7390981;19;20402;-63
2023/09/03 04:25:52;;;;;;;12.60;9.90;;;;;;;13.84;100.00;101827.16;7394388;19;20389;-63
2023/09/03 04:28:20;;;;;;;12.00;10.32;;;;;;;13.82;100.00;101832.66;7398705;19;20769;-63
2023/09/03 04:30:53;;;;;;;12.73;9.93;;;;;;;13.78;100.00;101844.66;7397270;19;20828;-63
2023/09/03 04:33:20;;;;;;;12.02;9.95;;;;;;;13.76;100.00;101838.66;7396772;19;20892;-63
2023/09/03 04:35:53;;;;;;;12.73;9.50;;;;;;;13.74;100.00;101843.31;7397407;19;20379;-63
2023/09/03 04:38:20;;;;;;;13.82;10.23;;;;;;;13.74;100.00;101842.50;7396408;19;20377;-63
2023/09/03 04:40:47;;;;;;;12.23;10.77;;;;;;;13.70;100.00;101835.84;7396669;19;20364;-63
2023/09/03 04:43:14;;;;;;;15.98;10.88;;;;;;;13.66;100.00;101841.50;7395782;19;20333;-63
2023/09/03 04:45:52;;;;;;;15.73;11.20;;;;;;;13.64;100.00;101854.19;7394316;19;20420;-63
2023/09/03 04:48:21;;;;;;;13.10;10.90;;;;;;;13.64;100.00;101850.66;7398079;19;20372;-63
2023/09/03 04:50:48;;;;;;;13.87;11.57;;;;;;;13.63;100.00;101847.16;7398153;19;20433;-63
2023/09/03 04:53:15;;;;;;;13.75;10.65;;;;;;;13.65;100.00;101844.34;7395121;19;20372;-63
2023/09/03 04:55:44;;;;;;;13.88;10.95;;;;;;;13.66;100.00;101859.31;7395983;19;20381;-63
2023/09/03 04:58:11;;;;;;;15.40;12.10;;;;;;;13.67;100.00;101863.66;7395744;19;20375;-63
2023/09/03 05:00:39;;;;;;;14.60;11.93;;;;;;;13.68;100.00;101865.31;7391543;19;20376;-63
2023/09/03 05:03:08;;;;;;;13.90;11.00;;;;;;;13.70;100.00;101867.81;7396664;19;20393;-63
2023/09/03 05:05:43;;;;;;;15.98;11.55;;;;;;;13.75;100.00;101876.16;7396028;19;20340;-62
2023/09/03 05:08:11;;;;;;;14.90;11.50;;;;;;;13.81;100.00;101870.16;7397119;19;20376;-63
2023/09/03 05:10:41;;;;;;;16.08;11.23;;;;;;;13.90;100.00;101889.66;7395609;19;20869;-63
2023/09/03 05:13:09;;;;;;;14.30;11.65;;;;;;;13.95;100.00;101882.00;7394782;19;20398;-62
2023/09/03 05:15:37;;;;;;;15.48;12.20;;;;;;;14.00;100.00;101891.13;7393559;19;20891;-63
2023/09/03 05:18:04;;;;;;;16.13;11.70;;;;;;;14.04;100.00;101891.66;7393158;19;20371;-62
2023/09/03 05:20:37;;;;;;;15.57;11.75;;;;;;;14.08;100.00;101901.81;7395903;19;20439;-63
2023/09/03 05:23:05;;;;;;;16.35;12.73;;;;;;;14.13;100.00;101906.66;7398931;19;20372;-63
2023/09/03 05:25:32;;;;;;;14.43;11.63;;;;;;;14.12;100.00;101921.00;7393614;19;20348;-63
2023/09/03 05:28:00;;;;;;;14.70;12.10;;;;;;;14.12;100.00;101942.34;7395286;19;20348;-63
2023/09/03 05:30:26;;;;;;;15.32;12.68;;;;;;;14.13;100.00;101952.03;7390518;19;20385;-63
2023/09/03 05:32:54;;;;;;;15.57;12.50;;;;;;;14.15;100.00;101958.00;7395368;19;20364;-63
2023/09/03 05:35:23;;;;;;;15.45;11.93;;;;;;;14.14;100.00;101967.03;7393519;19;20737;-63
2023/09/03 05:37:51;;;;;;;14.70;11.48;;;;;;;14.20;100.00;101963.69;7393422;19;20894;-63
2023/09/03 05:40:18;;;;;;;14.73;12.55;;;;;;;14.24;100.00;101956.19;7394863;19;20340;-63
2023/09/03 05:42:45;;;;;;;15.82;11.98;;;;;;;14.30;100.00;101955.50;7394308;19;20376;-63
2023/09/03 05:45:12;;;;;;;15.73;12.27;;;;;;;14.37;100.00;101961.00;7389206;19;20806;-63
2023/09/03 05:47:39;;;;;;;15.70;12.15;;;;;;;14.43;100.00;101961.16;7395084;19;20436;-63
2023/09/03 05:50:07;;;;;;;14.80;11.68;;;;;;;14.53;100.00;101966.31;7395983;19;20711;-63
2023/09/03 05:52:34;;;;;;;14.90;12.13;;;;;;;14.63;100.00;101963.50;7392064;19;20887;-63
2023/09/03 05:55:02;;;;;;;14.60;12.25;;;;;;;14.70;100.00;101964.47;7393826;19;20897;-63
2023/09/03 05:57:29;;;;;;;15.55;12.48;;;;;;;14.79;100.00;101959.94;7396276;19;20377;-63
2023/09/03 05:59:56;;;;;;;17.75;12.20;;;;;;;14.83;100.00;101962.13;7393673;19;20886;-63
2023/09/03 06:02:23;;;;;;;14.67;12.00;;;;;;;14.91;100.00;101944.38;7392190;19;20393;-63
2023/09/03 06:04:50;;;;;;;16.55;12.70;;;;;;;14.99;100.00;101947.84;7394457;19;20473;-63
2023/09/03 06:07:17;;;;;;;15.57;12.43;;;;;;;15.07;100.00;101961.19;7380479;19;20428;-64
2023/09/03 06:09:45;;;;;;;17.15;12.05;;;;;;;15.15;100.00;101959.47;7392931;19;20344;-63
2023/09/03 06:12:11;;;;;;;16.50;12.43;;;;;;;15.25;100.00;101960.09;7392253;19;20443;-63
2023/09/03 06:14:38;;;;;;;15.10;12.17;;;;;;;15.36;100.00;101973.06;7392631;19;20360;-62
2023/09/03 06:17:07;;;;;;;16.35;12.52;;;;;;;15.44;100.00;101970.34;7391047;19;20356;-63
2023/09/03 06:19:33;;;;;;;15.40;11.80;;;;;;;15.45;100.00;101985.38;7394392;19;20389;-63
2023/09/03 06:22:00;;;;;;;15.03;11.30;;;;;;;15.45;100.00;101988.06;7390828;19;20376;-63
2023/09/03 06:24:27;;;;;;;16.42;12.63;;;;;;;15.46;100.00;102000.41;7389481;19;20343;-63
2023/09/03 06:26:56;;;;;;;16.25;11.80;;;;;;;15.46;100.00;101996.91;7392033;19;20370;-63
2023/09/03 06:29:23;;;;;;;15.80;12.48;;;;;;;15.48;100.00;101992.22;7388059;19;20361;-63
2023/09/03 06:31:50;;;;;;;15.33;12.00;;;;;;;15.50;100.00;101990.22;7393371;19;20365;-63
2023/09/03 06:34:17;;;;;;;17.07;13.00;;;;;;;15.53;100.00;101989.84;7393142;19;20376;-62
2023/09/03 06:36:44;;;;;;;18.17;12.48;;;;;;;15.55;100.00;101993.19;7392395;19;20357;-63
2023/09/03 06:39:13;;;;;;;16.20;12.65;;;;;;;15.61;100.00;101997.00;7390953;19;20370;-63
2023/09/03 06:41:40;;;;;;;15.57;12.57;;;;;;;15.65;100.00;101996.47;7392638;19;20372;-63
2023/09/03 06:44:06;;;;;;;15.23;12.43;;;;;;;15.78;100.00;101992.41;7390280;19;20360;-63
2023/09/03 06:46:33;;;;;;;16.10;11.70;;;;;;;15.88;100.00;101993.84;7392093;19;20442;-64
2023/09/03 06:49:00;;;;;;;14.90;12.47;;;;;;;16.00;100.00;101990.75;7388710;19;20356;-63
2023/09/03 06:51:27;;;;;;;15.70;11.80;;;;;;;16.11;99.95;101984.97;7390159;19;20375;-63
2023/09/03 06:53:54;;;;;;;15.73;11.63;;;;;;;16.22;99.31;101984.53;7393230;19;20360;-63
2023/09/03 06:56:21;;;;;;;14.30;10.90;;;;;;;16.39;98.92;101989.75;7392055;19;20389;-63
2023/09/03 06:58:48;;;;;;;12.50;10.85;;;;;;;16.49;97.46;101990.31;7390851;19;20909;-61
2023/09/03 07:01:17;;;;;;;12.40;10.63;;;;;;;16.61;96.95;101999.56;7388156;19;20347;-63
2023/09/03 07:03:44;;;;;;;13.15;10.85;;;;;;;16.81;97.02;101982.97;7385622;19;20696;-63
2023/09/03 07:06:10;;;;;;;12.68;10.23;;;;;;;16.98;96.26;101989.84;7386619;19;20364;-63
2023/09/03 07:08:37;;;;;;;13.05;9.35;;;;;;;17.11;94.40;101995.38;7388436;19;20368;-63
2023/09/03 07:11:04;;;;;;;13.23;9.18;;;;;;;17.19;93.59;101982.88;7390611;19;20380;-63
2023/09/03 07:13:31;;;;;;;11.35;7.93;;;;;;;17.27;92.87;101977.41;7392017;19;20341;-62
2023/09/03 07:16:03;;;;;;;10.85;8.15;;;;;;;17.29;92.21;101994.97;7391708;19;20356;-63
2023/09/03 07:18:30;;;;;;;17.08;13.23;;;;;;;17.35;92.88;101995.25;7392643;19;20694;-61
2023/09/03 07:21:05;;;;;;;11.60;8.90;;;;;;;17.42;92.01;102002.34;7390528;19;20363;-60
2023/09/03 07:23:32;;;;;;;17.17;12.45;;;;;;;17.49;91.64;101999.75;7390996;19;20396;-60
2023/09/03 07:26:04;;;;;;;11.90;9.20;;;;;;;17.58;90.46;102008.53;7389994;19;20363;-60
2023/09/03 07:28:32;;;;;;;11.82;8.32;;;;;;;17.60;90.09;102020.72;7393301;19;20832;-61
2023/09/03 07:31:00;;;;;;;10.75;7.93;;;;;;;17.70;89.70;102020.41;7387748;19;20356;-60
2023/09/03 07:33:27;;;;;;;9.98;8.27;;;;;;;17.84;89.26;102030.28;7394501;19;20372;-60
2023/09/03 07:35:56;;;;;;;11.73;7.80;;;;;;;18.00;87.82;102025.69;7399861;19;20390;-60
2023/09/03 07:38:25;;;;;;;7.18;4.72;;;;;;;18.08;85.94;102018.34;7395414;19;20360;-61
2023/09/03 07:40:51;;;;;;;6.93;4.07;;;;;;;18.18;84.68;102020.72;7396994;19;20727;-61
2023/09/03 07:43:18;;;;;;;6.93;3.40;;;;;;;18.26;83.51;102025.94;7388323;19;20360;-61
2023/09/03 07:45:46;;;;;;;7.13;4.10;;;;;;;18.51;84.49;102021.00;7392489;19;20501;-61
2023/09/03 07:48:12;;;;;;;4.75;2.83;;;;;;;18.60;81.05;102024.38;7394341;19;20424;-60
2023/09/03 07:50:39;;;;;;;5.63;3.20;;;;;;;18.71;81.08;102020.31;7398472;19;20367;-60
2023/09/03 07:53:06;;;;;;;3.90;2.97;;;;;;;18.85;81.53;102019.41;7400450;19;20420;-61
2023/09/03 07:55:33;;;;;;;5.13;2.40;;;;;;;18.96;80.30;102031.44;7394619;19;20350;-61
2023/09/03 07:58:00;;;;;;;3.97;1.97;;;;;;;19.02;78.88;102025.28;7399139;19;20411;-61
2023/09/03 08:00:27;;;;;;;4.30;2.13;;;;;;;19.06;77.96;102021.19;7400104;19;20365;-60
2023/09/03 08:02:54;;;;;;;4.68;2.40;;;;;;;19.10;77.15;102037.72;7398538;19;20364;-60
2023/09/03 08:05:22;;;;;;;4.50;2.22;;;;;;;19.13;77.97;102037.34;7396300;19;20895;-61
2023/09/03 08:07:49;;;;;;;3.78;2.33;;;;;;;19.20;77.79;102026.63;7397893;19;20372;-60
2023/09/03 08:10:19;;;;;;;3.97;2.40;;;;;;;19.33;78.73;102030.19;7401915;19;20368;-59
2023/09/03 08:12:46;;;;;;;4.80;2.20;;;;;;;19.43;76.30;102040.56;7396265;19;20346;-61
2023/09/03 08:15:14;;;;;;;4.47;2.80;;;;;;;19.58;78.32;102037.72;7400119;19;20368;-58
2023/09/03 08:17:43;;;;;;;3.30;1.90;;;;;;;19.79;78.08;102034.09;7401598;19;20360;-60
2023/09/03 08:20:12;;;;;;;6.50;2.42;;;;;;;19.95;79.42;102028.34;7399576;19;20790;-59
2023/09/03 08:22:38;;;;;;;3.88;2.10;;;;;;;20.12;76.84;102034.13;7398585;19;20916;-60
2023/09/03 08:25:06;;;;;;;4.70;2.10;;;;;;;20.29;76.90;102028.34;7396745;19;20435;-60
2023/09/03 08:27:32;;;;;;;4.47;2.22;;;;;;;20.36;73.26;102042.69;7397401;19;20816;-60
2023/09/03 08:29:59;;;;;;;3.70;2.00;;;;;;;20.40;72.15;102037.69;7397741;19;20870;-61
2023/09/03 08:32:28;;;;;;;3.47;1.80;;;;;;;20.42;71.10;102044.50;7396369;19;20368;-60
2023/09/03 08:34:55;;;;;;;3.70;1.70;;;;;;;20.41;70.82;102042.06;7398651;19;20434;-60
2023/09/03 08:37:26;;;;;;;4.70;2.08;;;;;;;20.50;72.45;102046.19;7396990;19;20705;-58
2023/09/03 08:39:53;;;;;;;4.13;2.08;;;;;;;20.52;71.37;102052.19;7398719;19;20373;-59
2023/09/03 08:42:20;;;;;;;5.57;1.85;;;;;;;20.63;71.81;102048.91;7395950;19;20363;-60
2023/09/03 08:45:03;;;;;;;5.00;2.15;;;;;;;20.96;73.94;102053.44;7396544;19;20369;-59
2023/09/03 08:47:30;;;;;;;3.58;1.50;;;;;;;21.08;68.78;102057.13;7388852;19;20377;-58
2023/09/03 08:49:58;;;;;;;4.00;1.77;;;;;;;21.19;69.07;102058.34;7399067;19;20393;-59
2023/09/03 08:52:26;;;;;;;6.97;1.90;;;;;;;21.36;70.11;102059.53;7392539;19;20360;-58
2023/09/03 08:54:54;;;;;;;4.75;1.67;;;;;;;21.44;67.28;102054.94;7394392;19;20424;-61
2023/09/03 08:57:28;;;;;;;2.90;1.35;;;;;;;21.28;63.78;102057.06;7397056;19;20360;-60
2023/09/03 08:59:57;;;;;;;4.05;1.27;;;;;;;21.20;64.55;102048.38;7393969;19;20357;-61
2023/09/03 09:02:26;;;;;;;4.97;1.60;;;;;;;21.20;65.42;102060.00;7394484;19;20364;-60
2023/09/03 09:04:53;;;;;;;4.40;1.20;;;;;;;21.29;66.07;102047.09;7390118;19;20373;-60
2023/09/03 09:07:21;;;;;;;2.53;1.23;;;;;;;21.29;66.24;102052.50;7385330;19;20340;-60
2023/09/03 09:09:50;;;;;;;3.10;1.20;;;;;;;21.28;63.48;102051.66;7395219;19;20380;-60
2023/09/03 09:12:27;;;;;;;2.65;1.00;;;;;;;21.24;62.49;102055.00;7398343;19;20345;-60
2023/09/03 09:15:03;;;;;;;2.13;1.13;;;;;;;21.34;63.92;102055.38;7397212;19;20840;-58
2023/09/03 09:17:56;;;;;;;4.15;1.40;;;;;;;21.35;60.88;102059.72;7395968;19;20364;-58
2023/09/03 09:20:23;;;;;;;2.78;0.90;;;;;;;21.26;60.64;102071.81;7396207;19;20449;-61
2023/09/03 09:22:50;;;;;;;2.78;0.90;;;;;;;21.39;64.08;102069.88;7398483;19;20336;-60
2023/09/03 09:25:22;;;;;;;2.22;0.98;;;;;;;21.49;62.85;102058.69;7398671;19;20367;-59
2023/09/03 09:27:49;;;;;;;4.00;1.00;;;;;;;21.74;62.72;102055.22;7397834;19;20887;-58
2023/09/03 09:30:21;;;;;;;2.55;1.00;;;;;;;21.98;61.56;102061.75;7398704;19;20356;-60
2023/09/03 09:33:02;;;;;;;2.13;1.10;;;;;;;22.23;58.90;102066.38;7396828;19;20363;-60
2023/09/03 09:35:29;;;;;;;2.85;1.10;;;;;;;22.38;60.82;102062.31;7398524;19;20345;-60
2023/09/03 09:38:04;;;;;;;2.00;1.00;;;;;;;22.44;58.55;102065.16;7398098;19;20365;-58
2023/09/03 09:40:31;;;;;;;2.50;1.00;;;;;;;22.48;57.09;102060.97;7397392;19;20363;-60
2023/09/03 09:43:03;;;;;;;3.15;0.88;;;;;;;22.26;54.65;102069.47;7399041;19;20345;-61
2023/09/03 09:45:31;;;;;;;3.47;0.80;;;;;;;22.13;54.84;102072.25;7398425;19;20369;-59
2023/09/03 09:48:08;;;;;;;3.40;1.02;;;;;;;22.17;56.75;102059.94;7396912;19;20946;-60
2023/09/03 09:50:43;;;;;;;3.20;0.98;;;;;;;22.31;56.03;102064.22;7395937;19;20363;-59
2023/09/03 09:53:24;;;;;;;2.13;0.90;;;;;;;22.40;57.25;102064.81;7397254;19;20429;-59
2023/09/03 09:56:01;;;;;;;2.35;0.90;;;;;;;22.60;58.32;102059.22;7397706;19;20894;-59
2023/09/03 09:58:54;;;;;;;2.70;0.97;;;;;;;22.75;54.96;102059.69;7395692;19;20445;-60
2023/09/03 10:01:23;;;;;;;2.97;0.90;;;;;;;22.65;54.11;102055.84;7396916;19;20424;-60
2023/09/03 10:03:49;;;;;;;3.22;0.90;;;;;;;22.68;53.93;102042.69;7397536;19;20726;-59
2023/09/03 10:06:19;;;;;;;3.10;0.82;;;;;;;22.66;54.78;102052.91;7397640;19;20367;-60
2023/09/03 10:08:48;;;;;;;2.55;1.00;;;;;;;22.64;54.05;102059.59;7394296;19;20721;-59
2023/09/03 10:11:19;;;;;;;2.80;1.10;;;;;;;22.59;53.76;102052.16;7397278;19;20689;-59
2023/09/03 10:13:48;;;;;;;2.08;1.00;;;;;;;22.57;52.10;102051.56;7397737;19;20378;-60
2023/09/03 10:16:19;;;;;;;2.35;1.10;;;;;;;22.72;55.60;102043.91;7397196;19;20348;-61
2023/09/03 10:18:48;;;;;;;3.17;1.20;;;;;;;22.91;52.63;102050.16;7396667;19;20340;-59
2023/09/03 10:21:19;;;;;;;3.70;1.30;;;;;;;22.98;53.23;102036.56;7396483;19;20348;-60
2023/09/03 10:23:50;;;;;;;2.22;1.10;;;;;;;23.19;54.69;102036.13;7397335;19;20336;-58
2023/09/03 10:26:34;;;;;;;2.72;1.05;;;;;;;23.46;53.24;102041.22;7392571;19;21396;-58
2023/09/03 10:29:05;;;;;;;5.28;1.50;;;;;;;23.65;53.14;102054.72;7395903;19;20372;-60
2023/09/03 10:31:36;;;;;;;3.90;0.90;;;;;;;23.66;49.76;102059.91;7397473;19;20356;-58
2023/09/03 10:34:09;;;;;;;2.17;1.13;;;;;;;23.52;48.58;102061.13;7395784;19;20407;-58
2023/09/03 10:36:35;;;;;;;1.65;1.00;;;;;;;23.52;50.61;102056.53;7396712;19;20356;-60
2023/09/03 10:39:21;;;;;;;1.83;0.93;;;;;;;23.51;49.64;102060.31;7397276;19;20360;-58
2023/09/03 10:41:48;;;;;;;3.30;0.90;;;;;;;23.55;51.11;102061.53;7396956;19;20368;-59
2023/09/03 10:44:15;;;;;;;2.33;1.00;;;;;;;23.72;51.20;102063.59;7396690;19;20704;-58
2023/09/03 10:47:10;;;;;;;1.48;0.70;;;;;;;23.71;48.06;102070.06;7394499;19;20333;-60
2023/09/03 10:49:44;;;;;;;2.85;1.10;;;;;;;23.56;47.69;102065.06;7395810;19;20360;-59
2023/09/03 10:52:27;;;;;;;4.32;1.30;;;;;;;23.66;50.89;102064.50;7394514;19;20368;-61
2023/09/03 10:55:10;;;;;;;3.80;1.00;;;;;;;23.69;48.14;102061.34;7396168;19;20356;-60
2023/09/03 10:57:36;;;;;;;2.00;1.10;;;;;;;23.71;47.56;102068.16;7395916;19;20939;-58
2023/09/03 11:00:06;;;;;;;2.55;1.02;;;;;;;23.74;46.66;102075.84;7396619;19;20360;-60
2023/09/03 11:02:35;;;;;;;2.80;1.00;;;;;;;23.79;47.07;102077.91;7396159;19;20352;-60
2023/09/03 11:05:08;;;;;;;2.50;1.05;;;;;;;23.66;47.70;102084.31;7394434;19;20364;-60
2023/09/03 11:07:35;;;;;;;2.53;1.10;;;;;;;23.70;49.03;102080.09;7395186;19;20333;-59
2023/09/03 11:10:19;;;;;;;2.85;1.45;;;;;;;23.86;49.20;102080.53;7399425;19;20368;-57
2023/09/03 11:12:47;;;;;;;3.20;1.10;;;;;;;24.00;47.90;102076.56;7401444;19;20336;-59
2023/09/03 11:15:14;;;;;;;2.50;0.98;;;;;;;23.88;46.69;102081.13;7402837;19;20875;-58
2023/09/03 11:17:48;;;;;;;2.65;1.00;;;;;;;23.86;46.83;102100.31;7402937;19;20368;-55
2023/09/03 11:20:32;;;;;;;1.95;0.73;;;;;;;23.39;44.71;102089.22;7402785;19;20356;-60
2023/09/03 11:23:17;;;;;;;1.70;0.90;;;;;;;23.29;45.93;102084.34;7402482;19;20347;-61
2023/09/03 11:25:44;;;;;;;2.83;1.10;;;;;;;23.27;47.92;102081.03;7402547;19;20360;-60
2023/09/03 11:28:12;;;;;;;2.35;1.08;;;;;;;23.41;48.20;102076.28;7400636;19;20389;-61